• Join FlightAware (Why Join?)
  • Login
  • US Flag 
11:11AM EST


 

Airport Tracker/Info


-or-


 

Live Flight TrackerFlight Track Log ✈ DAL1515 ✈ 02-Jul-2013 ✈ KATL - KALB

Flight Track Log - Related Links

Times and Time Zones

All times are in EDT time to prevent confusion due to time zone crossing. See the DAL1515 flight status page for this flight to view local times or setup timezone preferences in your user account.

Time Position Orientation Groundspeed Altitude Reporting Facility
EDT Latitude Longitude Course Direction KTS MPH feet Rate Location/Type
08:24PM 33.6500 -84.3833 11° North 174 200 2,300  Level Atlanta TRACON
08:25PM 33.6500 -84.3167 90° East 248 285 3,600 2,280 Climbing Atlanta TRACON
08:26PM 33.6833 -84.2333 64° Northeast 280 322 6,700 2,880 Climbing Atlanta TRACON
08:27PM 33.9771 -84.2667 North  Level FlightAware Approximate
08:27PM 33.7333 -84.1833 40° Northeast 300 345 9,400  Level Atlanta TRACON
08:28PM 34.1116 -84.2667 North  Level FlightAware Approximate
08:28PM 33.8167 -84.1833 360° North 309 356 10,000  Level Atlanta TRACON
08:29PM 34.2460 -84.2667 North  Level FlightAware Approximate
08:30PM 34.3786 -84.2439 11° North  Level FlightAware Approximate
08:30PM 34.0633 -84.2694 344° North 383 441 14,600  Level Atlanta Center
08:31PM 34.1864 -84.2750 358° North 414 476 17,000 2,100 Climbing Atlanta Center
08:32PM 34.3094 -84.2753 360° North 433 498 18,900 1,860 Climbing Atlanta Center
08:33PM 34.4347 -84.2453 11° North 450 518 20,800 1,740 Climbing Atlanta Center
08:34PM 34.5622 -84.2153 11° North 468 539 22,400 1,440 Climbing Atlanta Center
08:35PM 34.6769 -84.1903 10° North 476 548 23,700 1,260 Climbing Atlanta Center
08:36PM 34.8147 -84.1578 11° North 483 556 25,000 1,200 Climbing Atlanta Center
08:37PM 34.9567 -84.1250 11° North 499 574 26,100 1,320 Climbing Atlanta Center
08:38PM 35.0986 -84.0894 12° North 509 586 27,700 1,440 Climbing Atlanta Center
08:39PM 35.2383 -84.0567 11° North 509 586 29,000 600 Climbing Atlanta Center
08:40PM 35.3803 -84.0208 12° North 509 586 29,000  Level Atlanta Center
08:41PM 35.5200 -83.9878 11° North 509 586 29,000  Level Atlanta Center
08:42PM 35.6619 -83.9519 12° North 514 592 29,000 540 Level Atlanta Center
08:43PM 35.8078 -83.9183 11° North 514 592 30,100 1,080 Climbing Atlanta Center
08:44PM 35.9456 -83.8694 16° North 514 592 31,200 1,080 Climbing Atlanta Center
08:45PM 36.0725 -83.7894 27° Northeast 514 592 32,300 1,140 Climbing Atlanta Center
08:46PM 36.1950 -83.7086 28° Northeast 513 590 33,400 960 Climbing Indianapolis Center
08:47PM 36.3214 -83.6267 28° Northeast 515 593 34,200 780 Climbing Indianapolis Center
08:48PM 36.4472 -83.5464 27° Northeast 510 587 35,000 360 Climbing Indianapolis Center
08:49PM 36.5711 -83.4700 26° Northeast 517 595 35,000  Level Indianapolis Center
08:50PM 36.7103 -83.3575 33° Northeast 512 589 35,000  Level Indianapolis Center
08:51PM 36.8236 -83.2492 37° Northeast 509 586 35,000  Level Indianapolis Center
08:52PM 36.9386 -83.1411 37° Northeast 513 590 35,000  Level Indianapolis Center
08:53PM 37.0569 -83.0325 36° Northeast 517 595 35,000  Level Indianapolis Center
08:54PM 37.1717 -82.9211 38° Northeast 514 592 35,000  Level Indianapolis Center
08:55PM 37.2844 -82.8133 37° Northeast 508 585 35,000  Level Indianapolis Center
08:56PM 37.3994 -82.7064 36° Northeast 510 587 35,000  Level Indianapolis Center
08:58PM 37.5119 -82.5978 37° Northeast 508 585 35,000  Level Indianapolis Center
08:59PM 37.6242 -82.4903 37° Northeast 505 581 35,000  Level Indianapolis Center
09:00PM 37.7367 -82.3814 37° Northeast 506 582 35,000  Level Indianapolis Center
09:01PM 37.8494 -82.2714 38° Northeast 510 587 35,000  Level Indianapolis Center
09:02PM 37.9744 -82.1478 38° Northeast 505 581 35,000  Level Indianapolis Center
09:03PM 38.0886 -82.0350 38° Northeast 513 590 35,000  Level Indianapolis Center
09:04PM 38.2000 -81.9219 39° Northeast 513 590 35,000  Level Indianapolis Center
09:05PM 38.3108 -81.8108 38° Northeast 508 585 35,000  Level Indianapolis Center
09:06PM 38.4114 -81.6878 44° Northeast 504 580 35,000  Level Indianapolis Center
09:07PM 38.5006 -81.5567 49° Northeast 496 571 35,000  Level Indianapolis Center
09:08PM 38.5911 -81.4253 49° Northeast 503 579 35,000  Level Indianapolis Center
09:09PM 38.7017 -81.2697 48° Northeast 503 579 35,000  Level Indianapolis Center
09:10PM 38.7933 -81.1375 48° Northeast 501 577 35,000  Level Indianapolis Center
09:11PM 38.8861 -81.0033 48° Northeast 505 581 35,000  Level Indianapolis Center
09:12PM 38.9806 -80.8664 48° Northeast 512 589 35,000  Level Indianapolis Center
09:13PM 39.0744 -80.7311 48° Northeast 507 583 35,000  Level Indianapolis Center
09:14PM 39.1708 -80.5975 47° Northeast 509 586 35,000  Level Indianapolis Center
09:15PM 39.2669 -80.4622 47° Northeast 512 589 35,000  Level Indianapolis Center
09:16PM 39.3625 -80.3281 47° Northeast 509 586 35,000  Level Indianapolis Center
09:17PM 39.4558 -80.2014 46° Northeast 512 589 35,000  Level Cleveland Center
09:18PM 39.5511 -80.0608 49° Northeast 507 583 35,000  Level Cleveland Center
09:19PM 39.6442 -79.9253 48° Northeast 507 583 35,000  Level Cleveland Center
09:20PM 39.7392 -79.7894 48° Northeast 507 583 35,000  Level Cleveland Center
09:21PM 39.8319 -79.6478 50° Northeast 507 583 35,000  Level Cleveland Center
09:22PM 39.9244 -79.5083 49° Northeast 507 583 35,000  Level Cleveland Center
09:23PM 40.0189 -79.3686 49° Northeast 512 589 35,000  Level Cleveland Center
09:24PM 40.1172 -79.2147 50° Northeast 504 580 35,000  Level Cleveland Center
09:25PM 40.2094 -79.0769 49° Northeast 504 580 35,000  Level Cleveland Center
09:26PM 40.3056 -78.9358 48° Northeast 504 580 35,000  Level Cleveland Center
09:27PM 40.3950 -78.7975 50° Northeast 504 580 35,000  Level Cleveland Center
09:28PM 40.4886 -78.6531 50° Northeast 504 580 35,000  Level Cleveland Center
09:29PM 40.5800 -78.5136 49° Northeast 504 580 35,000  Level Cleveland Center
09:31PM 40.7406 -78.2708 49° Northeast 498 573 35,000  Level New York Center
09:32PM 40.8308 -78.1272 50° Northeast 503 579 35,000  Level New York Center
09:33PM 40.9228 -77.9886 49° Northeast 498 573 35,000  Level New York Center
09:34PM 41.0186 -77.8475 48° Northeast 504 580 35,000 -300 Level New York Center
09:35PM 41.1103 -77.7111 48° Northeast 504 580 34,500 -720 Descending New York Center
09:36PM 41.1964 -77.5875 47° Northeast 504 580 33,600 -1,020 Descending New York Center
09:37PM 41.2903 -77.4422 49° Northeast 514 592 32,500 -960 Descending New York Center
09:38PM 41.3944 -77.2922 47° Northeast 508 585 31,700 -780 Descending New York Center
09:39PM 41.4917 -77.1492 48° Northeast 508 585 31,000 -780 Descending New York Center
09:40PM 41.5778 -77.0217 48° Northeast 514 592 30,200 -960 Descending New York Center
09:41PM 41.6728 -76.8750 49° Northeast 514 592 29,100 -720 Descending New York Center
09:43PM 41.9233 -76.5006 48° Northeast 519 597 27,900 -540 Descending Boston Center
09:44PM 42.0178 -76.3583 48° Northeast 519 597 27,400 -720 Descending Boston Center
09:45PM 42.1106 -76.2103 50° Northeast 519 597 26,500 -720 Descending Boston Center
09:46PM 42.1906 -76.0581 55° Northeast 508 585 26,000 -480 Descending Boston Center
09:47PM 42.2478 -75.8903 65° Northeast 496 571 25,600 -600 Descending Boston Center
09:48PM 42.3028 -75.7275 65° Northeast 485 558 24,800 -900 Descending Boston Center
09:49PM 42.3597 -75.5592 65° Northeast 480 552 23,900 -900 Descending Boston Center
09:50PM 42.4161 -75.3958 65° Northeast 475 547 23,100 -1,500 Descending Boston Center
09:51PM 42.4589 -75.2714 65° Northeast 475 547 21,000 -2,400 Descending Boston Center
09:52PM 42.5011 -75.0789 73° East 462 532 18,300 -2,460 Descending Boston Center
09:53PM 42.5317 -74.9225 75° East 442 509 16,100 -2,400 Descending Boston Center
09:54PM 42.5597 -74.7769 75° East 402 463 13,500 -2,400 Descending Boston Center
09:55PM 42.5878 -74.6314 75° East 398 458 11,300 -1,320 Descending Boston Center
09:56PM 42.6128 -74.5108 74° East 375 432 10,900 -600 Descending Boston Center
09:57PM 42.6383 -74.3733 76° East 347 399 10,100 -1,080 Descending Boston Center
09:58PM 42.6544 -74.2750 77° East 308 354 8,800 -1,560 Descending Boston Center
09:59PM 42.7061 -74.1692 56° Northeast 289 333 7,000 -1,740 Descending Boston Center
10:00PM 42.7511 -74.0942 51° Northeast 289 333 5,400 -1,500 Descending Boston Center
10:01PM 42.7981 -74.0192 50° Northeast 276 318 4,000 -1,440 Descending Boston Center
10:02PM 42.8386 -73.9492 52° Northeast 262 302 2,600 -840 Descending Boston Center
10:03PM 42.8567 -73.8308 78° East 197 227 2,100 -540 Descending Boston Center
10:04PM 42.8194 -73.8100 158° South 120 138 1,400 -720 Descending Boston Center